sensor_id;sensor_type;location;lat;lon;timestamp;P1;durP1;ratioP1;P2;durP2;ratioP2
51810;SDS011;52468;40.116;18.296;2023-07-09T00:02:21;14.00;;;6.60;;
51810;SDS011;52468;40.116;18.296;2023-07-09T00:04:51;12.53;;;6.37;;
51810;SDS011;52468;40.116;18.296;2023-07-09T00:07:22;8.43;;;6.83;;
51810;SDS011;52468;40.116;18.296;2023-07-09T00:09:56;8.87;;;6.40;;
51810;SDS011;52468;40.116;18.296;2023-07-09T00:12:24;11.13;;;6.93;;
51810;SDS011;52468;40.116;18.296;2023-07-09T00:14:52;10.27;;;6.47;;
51810;SDS011;52468;40.116;18.296;2023-07-09T00:17:28;8.87;;;7.23;;
51810;SDS011;52468;40.116;18.296;2023-07-09T00:19:59;11.03;;;6.07;;
51810;SDS011;52468;40.116;18.296;2023-07-09T00:22:27;10.37;;;5.87;;
51810;SDS011;52468;40.116;18.296;2023-07-09T00:24:55;8.37;;;6.17;;
51810;SDS011;52468;40.116;18.296;2023-07-09T00:27:25;10.07;;;6.03;;
51810;SDS011;52468;40.116;18.296;2023-07-09T00:29:58;10.73;;;6.30;;
51810;SDS011;52468;40.116;18.296;2023-07-09T00:32:26;9.87;;;6.70;;
51810;SDS011;52468;40.116;18.296;2023-07-09T00:34:55;9.37;;;7.03;;
51810;SDS011;52468;40.116;18.296;2023-07-09T00:37:24;8.67;;;6.13;;
51810;SDS011;52468;40.116;18.296;2023-07-09T00:39:56;12.73;;;6.65;;
51810;SDS011;52468;40.116;18.296;2023-07-09T00:42:24;9.23;;;5.87;;
51810;SDS011;52468;40.116;18.296;2023-07-09T00:44:52;10.63;;;6.57;;
51810;SDS011;52468;40.116;18.296;2023-07-09T00:47:26;10.87;;;6.97;;
51810;SDS011;52468;40.116;18.296;2023-07-09T00:53:38;10.87;;;7.13;;
51810;SDS011;52468;40.116;18.296;2023-07-09T01:00:12;8.40;;;7.27;;
51810;SDS011;52468;40.116;18.296;2023-07-09T01:02:44;11.93;;;6.73;;
51810;SDS011;52468;40.116;18.296;2023-07-09T01:05:15;11.40;;;7.03;;
51810;SDS011;52468;40.116;18.296;2023-07-09T01:07:47;9.43;;;6.60;;
51810;SDS011;52468;40.116;18.296;2023-07-09T01:10:16;8.80;;;6.57;;
51810;SDS011;52468;40.116;18.296;2023-07-09T01:12:45;10.10;;;7.03;;
51810;SDS011;52468;40.116;18.296;2023-07-09T01:15:15;12.07;;;7.43;;
51810;SDS011;52468;40.116;18.296;2023-07-09T01:17:43;12.83;;;6.60;;
51810;SDS011;52468;40.116;18.296;2023-07-09T01:20:16;8.17;;;6.00;;
51810;SDS011;52468;40.116;18.296;2023-07-09T01:22:48;10.80;;;6.60;;
51810;SDS011;52468;40.116;18.296;2023-07-09T01:25:17;8.67;;;7.77;;
51810;SDS011;52468;40.116;18.296;2023-07-09T01:27:46;10.30;;;7.33;;
51810;SDS011;52468;40.116;18.296;2023-07-09T01:30:18;12.87;;;7.33;;
51810;SDS011;52468;40.116;18.296;2023-07-09T01:32:51;10.13;;;7.00;;
51810;SDS011;52468;40.116;18.296;2023-07-09T01:37:53;8.63;;;7.30;;
51810;SDS011;52468;40.116;18.296;2023-07-09T01:40:22;10.30;;;7.67;;
51810;SDS011;52468;40.116;18.296;2023-07-09T01:42:56;8.63;;;6.77;;
51810;SDS011;52468;40.116;18.296;2023-07-09T01:45:27;12.47;;;7.33;;
51810;SDS011;52468;40.116;18.296;2023-07-09T01:47:55;12.53;;;7.37;;
51810;SDS011;52468;40.116;18.296;2023-07-09T01:50:24;8.33;;;6.07;;
51810;SDS011;52468;40.116;18.296;2023-07-09T01:52:56;10.10;;;6.88;;
51810;SDS011;52468;40.116;18.296;2023-07-09T01:55:25;9.43;;;7.23;;
51810;SDS011;52468;40.116;18.296;2023-07-09T01:57:57;11.37;;;7.20;;
51810;SDS011;52468;40.116;18.296;2023-07-09T02:00:25;13.33;;;6.70;;
51810;SDS011;52468;40.116;18.296;2023-07-09T02:02:53;10.00;;;6.63;;
51810;SDS011;52468;40.116;18.296;2023-07-09T02:05:22;9.83;;;6.57;;
51810;SDS011;52468;40.116;18.296;2023-07-09T02:07:52;8.63;;;7.27;;
51810;SDS011;52468;40.116;18.296;2023-07-09T02:10:22;8.57;;;6.43;;
51810;SDS011;52468;40.116;18.296;2023-07-09T02:12:50;9.40;;;6.80;;
51810;SDS011;52468;40.116;18.296;2023-07-09T02:15:18;9.57;;;6.57;;
51810;SDS011;52468;40.116;18.296;2023-07-09T02:17:46;13.97;;;7.57;;
51810;SDS011;52468;40.116;18.296;2023-07-09T02:20:14;8.67;;;6.40;;
51810;SDS011;52468;40.116;18.296;2023-07-09T02:22:42;12.23;;;6.73;;
51810;SDS011;52468;40.116;18.296;2023-07-09T02:25:11;10.73;;;7.67;;
51810;SDS011;52468;40.116;18.296;2023-07-09T02:27:39;10.67;;;5.90;;
51810;SDS011;52468;40.116;18.296;2023-07-09T02:30:07;9.43;;;7.37;;
51810;SDS011;52468;40.116;18.296;2023-07-09T02:32:35;10.30;;;7.53;;
51810;SDS011;52468;40.116;18.296;2023-07-09T02:35:04;10.30;;;6.57;;
51810;SDS011;52468;40.116;18.296;2023-07-09T02:37:32;11.87;;;6.80;;
51810;SDS011;52468;40.116;18.296;2023-07-09T02:40:00;12.43;;;8.27;;
51810;SDS011;52468;40.116;18.296;2023-07-09T02:42:29;10.87;;;7.23;;
51810;SDS011;52468;40.116;18.296;2023-07-09T02:44:58;10.23;;;6.83;;
51810;SDS011;52468;40.116;18.296;2023-07-09T02:47:27;12.20;;;7.97;;
51810;SDS011;52468;40.116;18.296;2023-07-09T02:49:57;11.40;;;6.50;;
51810;SDS011;52468;40.116;18.296;2023-07-09T02:52:25;8.17;;;6.80;;
51810;SDS011;52468;40.116;18.296;2023-07-09T02:54:55;9.67;;;6.93;;
51810;SDS011;52468;40.116;18.296;2023-07-09T02:57:23;12.37;;;6.93;;
51810;SDS011;52468;40.116;18.296;2023-07-09T02:59:50;11.77;;;6.93;;
51810;SDS011;52468;40.116;18.296;2023-07-09T03:02:18;10.40;;;6.53;;
51810;SDS011;52468;40.116;18.296;2023-07-09T03:04:46;7.40;;;6.70;;
51810;SDS011;52468;40.116;18.296;2023-07-09T03:07:14;10.70;;;6.47;;
51810;SDS011;52468;40.116;18.296;2023-07-09T03:09:42;8.17;;;5.77;;
51810;SDS011;52468;40.116;18.296;2023-07-09T03:12:10;7.13;;;6.07;;
51810;SDS011;52468;40.116;18.296;2023-07-09T03:14:38;8.40;;;6.23;;
51810;SDS011;52468;40.116;18.296;2023-07-09T03:17:06;11.50;;;6.57;;
51810;SDS011;52468;40.116;18.296;2023-07-09T03:19:34;10.53;;;6.37;;
51810;SDS011;52468;40.116;18.296;2023-07-09T03:22:03;12.57;;;6.33;;
51810;SDS011;52468;40.116;18.296;2023-07-09T03:24:31;9.13;;;6.67;;
51810;SDS011;52468;40.116;18.296;2023-07-09T03:26:59;12.00;;;7.53;;
51810;SDS011;52468;40.116;18.296;2023-07-09T03:29:27;10.47;;;6.90;;
51810;SDS011;52468;40.116;18.296;2023-07-09T03:31:55;11.43;;;6.87;;
51810;SDS011;52468;40.116;18.296;2023-07-09T03:34:23;9.13;;;6.20;;
51810;SDS011;52468;40.116;18.296;2023-07-09T03:36:51;9.07;;;7.03;;
51810;SDS011;52468;40.116;18.296;2023-07-09T03:39:18;9.77;;;6.93;;
51810;SDS011;52468;40.116;18.296;2023-07-09T03:41:46;9.03;;;6.77;;
51810;SDS011;52468;40.116;18.296;2023-07-09T03:44:14;11.13;;;5.97;;
51810;SDS011;52468;40.116;18.296;2023-07-09T03:46:44;12.33;;;5.13;;
51810;SDS011;52468;40.116;18.296;2023-07-09T03:49:12;11.57;;;6.47;;
51810;SDS011;52468;40.116;18.296;2023-07-09T03:51:40;11.47;;;6.03;;
51810;SDS011;52468;40.116;18.296;2023-07-09T03:54:08;9.27;;;6.03;;
51810;SDS011;52468;40.116;18.296;2023-07-09T03:56:36;8.63;;;5.37;;
51810;SDS011;52468;40.116;18.296;2023-07-09T03:59:04;5.93;;;5.13;;
51810;SDS011;52468;40.116;18.296;2023-07-09T04:01:32;7.00;;;5.07;;
51810;SDS011;52468;40.116;18.296;2023-07-09T04:04:00;7.57;;;5.10;;
51810;SDS011;52468;40.116;18.296;2023-07-09T04:06:28;8.03;;;4.93;;
51810;SDS011;52468;40.116;18.296;2023-07-09T04:08:56;12.97;;;5.47;;
51810;SDS011;52468;40.116;18.296;2023-07-09T04:11:24;6.73;;;4.60;;
51810;SDS011;52468;40.116;18.296;2023-07-09T04:13:52;6.07;;;4.90;;
51810;SDS011;52468;40.116;18.296;2023-07-09T04:16:20;11.03;;;4.27;;
51810;SDS011;52468;40.116;18.296;2023-07-09T04:18:48;5.97;;;4.23;;
51810;SDS011;52468;40.116;18.296;2023-07-09T04:21:15;7.10;;;4.30;;
51810;SDS011;52468;40.116;18.296;2023-07-09T04:23:43;7.07;;;4.07;;
51810;SDS011;52468;40.116;18.296;2023-07-09T04:26:12;6.63;;;3.90;;
51810;SDS011;52468;40.116;18.296;2023-07-09T04:28:41;7.37;;;5.00;;
51810;SDS011;52468;40.116;18.296;2023-07-09T04:31:09;5.50;;;3.70;;
51810;SDS011;52468;40.116;18.296;2023-07-09T04:33:37;7.33;;;4.50;;
51810;SDS011;52468;40.116;18.296;2023-07-09T04:36:04;7.93;;;4.50;;
51810;SDS011;52468;40.116;18.296;2023-07-09T04:38:32;5.53;;;3.87;;
51810;SDS011;52468;40.116;18.296;2023-07-09T04:41:00;6.13;;;4.00;;
51810;SDS011;52468;40.116;18.296;2023-07-09T04:43:28;7.73;;;3.60;;
51810;SDS011;52468;40.116;18.296;2023-07-09T04:45:56;6.87;;;3.97;;
51810;SDS011;52468;40.116;18.296;2023-07-09T04:48:24;7.13;;;3.63;;
51810;SDS011;52468;40.116;18.296;2023-07-09T04:50:52;4.77;;;3.53;;
51810;SDS011;52468;40.116;18.296;2023-07-09T04:53:20;4.87;;;3.53;;
51810;SDS011;52468;40.116;18.296;2023-07-09T04:55:51;4.10;;;3.57;;
51810;SDS011;52468;40.116;18.296;2023-07-09T04:58:19;6.40;;;4.43;;
51810;SDS011;52468;40.116;18.296;2023-07-09T05:00:47;4.63;;;3.30;;
51810;SDS011;52468;40.116;18.296;2023-07-09T05:03:15;6.03;;;4.20;;
51810;SDS011;52468;40.116;18.296;2023-07-09T05:05:46;8.37;;;5.27;;
51810;SDS011;52468;40.116;18.296;2023-07-09T05:08:14;6.67;;;4.67;;
51810;SDS011;52468;40.116;18.296;2023-07-09T05:10:42;6.77;;;4.17;;
51810;SDS011;52468;40.116;18.296;2023-07-09T05:13:11;5.97;;;4.67;;
51810;SDS011;52468;40.116;18.296;2023-07-09T05:15:40;7.87;;;4.47;;
51810;SDS011;52468;40.116;18.296;2023-07-09T05:18:10;5.60;;;3.90;;
51810;SDS011;52468;40.116;18.296;2023-07-09T05:20:39;5.57;;;4.27;;
51810;SDS011;52468;40.116;18.296;2023-07-09T05:23:08;8.07;;;4.40;;
51810;SDS011;52468;40.116;18.296;2023-07-09T05:25:37;7.90;;;4.00;;
51810;SDS011;52468;40.116;18.296;2023-07-09T05:28:05;9.37;;;4.53;;
51810;SDS011;52468;40.116;18.296;2023-07-09T05:30:33;7.67;;;4.60;;
51810;SDS011;52468;40.116;18.296;2023-07-09T05:33:01;7.10;;;4.30;;
51810;SDS011;52468;40.116;18.296;2023-07-09T05:35:29;4.57;;;3.37;;
51810;SDS011;52468;40.116;18.296;2023-07-09T05:37:57;5.47;;;3.80;;
51810;SDS011;52468;40.116;18.296;2023-07-09T05:40:24;4.93;;;3.60;;
51810;SDS011;52468;40.116;18.296;2023-07-09T05:42:52;6.17;;;3.87;;
51810;SDS011;52468;40.116;18.296;2023-07-09T05:45:20;5.20;;;4.00;;
51810;SDS011;52468;40.116;18.296;2023-07-09T05:47:48;5.13;;;3.73;;
51810;SDS011;52468;40.116;18.296;2023-07-09T05:50:16;5.93;;;3.73;;
51810;SDS011;52468;40.116;18.296;2023-07-09T05:52:44;6.00;;;4.20;;
51810;SDS011;52468;40.116;18.296;2023-07-09T05:55:11;7.90;;;5.17;;
51810;SDS011;52468;40.116;18.296;2023-07-09T05:57:39;8.67;;;5.73;;
51810;SDS011;52468;40.116;18.296;2023-07-09T06:00:07;6.17;;;4.07;;
51810;SDS011;52468;40.116;18.296;2023-07-09T06:02:40;8.03;;;4.43;;
51810;SDS011;52468;40.116;18.296;2023-07-09T06:05:08;6.93;;;3.93;;
51810;SDS011;52468;40.116;18.296;2023-07-09T06:07:38;9.67;;;4.27;;
51810;SDS011;52468;40.116;18.296;2023-07-09T06:10:09;5.43;;;3.60;;
51810;SDS011;52468;40.116;18.296;2023-07-09T06:12:37;6.37;;;4.87;;
51810;SDS011;52468;40.116;18.296;2023-07-09T06:15:05;15.87;;;3.90;;
51810;SDS011;52468;40.116;18.296;2023-07-09T06:17:33;4.70;;;3.50;;
51810;SDS011;52468;40.116;18.296;2023-07-09T06:20:01;6.23;;;3.90;;
51810;SDS011;52468;40.116;18.296;2023-07-09T06:22:29;9.03;;;3.93;;
51810;SDS011;52468;40.116;18.296;2023-07-09T06:24:57;6.37;;;4.17;;
51810;SDS011;52468;40.116;18.296;2023-07-09T06:27:25;7.00;;;3.57;;
51810;SDS011;52468;40.116;18.296;2023-07-09T06:29:54;4.82;;;2.80;;
51810;SDS011;52468;40.116;18.296;2023-07-09T06:32:21;5.25;;;3.13;;
51810;SDS011;52468;40.116;18.296;2023-07-09T06:34:49;5.20;;;3.30;;
51810;SDS011;52468;40.116;18.296;2023-07-09T06:37:18;3.13;;;2.50;;
51810;SDS011;52468;40.116;18.296;2023-07-09T06:39:45;5.82;;;2.50;;
51810;SDS011;52468;40.116;18.296;2023-07-09T06:42:13;4.32;;;2.53;;
51810;SDS011;52468;40.116;18.296;2023-07-09T06:44:55;3.57;;;2.53;;
51810;SDS011;52468;40.116;18.296;2023-07-09T06:47:24;6.22;;;2.70;;
51810;SDS011;52468;40.116;18.296;2023-07-09T06:49:51;3.67;;;2.55;;
51810;SDS011;52468;40.116;18.296;2023-07-09T06:52:19;5.55;;;3.55;;
51810;SDS011;52468;40.116;18.296;2023-07-09T06:54:47;4.35;;;3.47;;
51810;SDS011;52468;40.116;18.296;2023-07-09T06:57:16;4.97;;;2.83;;
51810;SDS011;52468;40.116;18.296;2023-07-09T06:59:44;7.18;;;3.35;;
51810;SDS011;52468;40.116;18.296;2023-07-09T07:02:12;5.95;;;3.10;;
51810;SDS011;52468;40.116;18.296;2023-07-09T07:04:40;5.22;;;2.60;;
51810;SDS011;52468;40.116;18.296;2023-07-09T07:07:08;4.78;;;3.05;;
51810;SDS011;52468;40.116;18.296;2023-07-09T07:09:37;3.20;;;2.50;;
51810;SDS011;52468;40.116;18.296;2023-07-09T07:12:05;6.03;;;3.13;;
51810;SDS011;52468;40.116;18.296;2023-07-09T07:14:33;6.35;;;3.00;;
51810;SDS011;52468;40.116;18.296;2023-07-09T07:17:01;4.22;;;2.53;;
51810;SDS011;52468;40.116;18.296;2023-07-09T07:19:29;3.05;;;2.72;;
51810;SDS011;52468;40.116;18.296;2023-07-09T07:21:57;3.85;;;3.22;;
51810;SDS011;52468;40.116;18.296;2023-07-09T07:24:25;3.80;;;2.92;;
51810;SDS011;52468;40.116;18.296;2023-07-09T07:26:53;4.15;;;2.70;;
51810;SDS011;52468;40.116;18.296;2023-07-09T07:29:21;3.30;;;2.45;;
51810;SDS011;52468;40.116;18.296;2023-07-09T07:31:49;3.67;;;2.72;;
51810;SDS011;52468;40.116;18.296;2023-07-09T07:34:16;4.65;;;2.60;;
51810;SDS011;52468;40.116;18.296;2023-07-09T07:36:45;3.53;;;2.53;;
51810;SDS011;52468;40.116;18.296;2023-07-09T07:39:14;2.28;;;1.95;;
51810;SDS011;52468;40.116;18.296;2023-07-09T07:41:42;4.00;;;2.60;;
51810;SDS011;52468;40.116;18.296;2023-07-09T07:44:10;3.50;;;2.38;;
51810;SDS011;52468;40.116;18.296;2023-07-09T07:46:38;4.05;;;2.22;;
51810;SDS011;52468;40.116;18.296;2023-07-09T07:49:06;5.28;;;2.47;;
51810;SDS011;52468;40.116;18.296;2023-07-09T07:51:33;4.75;;;2.63;;
51810;SDS011;52468;40.116;18.296;2023-07-09T07:54:01;3.90;;;2.70;;
51810;SDS011;52468;40.116;18.296;2023-07-09T07:56:29;4.53;;;2.25;;
51810;SDS011;52468;40.116;18.296;2023-07-09T07:58:57;3.90;;;2.50;;
51810;SDS011;52468;40.116;18.296;2023-07-09T08:01:25;6.93;;;2.60;;
51810;SDS011;52468;40.116;18.296;2023-07-09T08:03:53;4.15;;;2.42;;
51810;SDS011;52468;40.116;18.296;2023-07-09T08:06:21;3.53;;;2.50;;
51810;SDS011;52468;40.116;18.296;2023-07-09T08:08:49;5.10;;;3.25;;
51810;SDS011;52468;40.116;18.296;2023-07-09T08:11:17;4.00;;;3.00;;
51810;SDS011;52468;40.116;18.296;2023-07-09T08:13:45;3.97;;;2.63;;
51810;SDS011;52468;40.116;18.296;2023-07-09T08:16:13;4.78;;;2.38;;
51810;SDS011;52468;40.116;18.296;2023-07-09T08:18:41;3.72;;;2.85;;
51810;SDS011;52468;40.116;18.296;2023-07-09T08:21:09;3.60;;;2.58;;
51810;SDS011;52468;40.116;18.296;2023-07-09T08:23:37;3.80;;;2.33;;
51810;SDS011;52468;40.116;18.296;2023-07-09T08:26:06;4.85;;;3.17;;
51810;SDS011;52468;40.116;18.296;2023-07-09T08:28:34;3.75;;;2.28;;
51810;SDS011;52468;40.116;18.296;2023-07-09T08:31:02;8.60;;;2.90;;
51810;SDS011;52468;40.116;18.296;2023-07-09T08:33:31;3.28;;;2.22;;
51810;SDS011;52468;40.116;18.296;2023-07-09T08:35:59;4.22;;;3.22;;
51810;SDS011;52468;40.116;18.296;2023-07-09T08:38:26;4.35;;;2.80;;
51810;SDS011;52468;40.116;18.296;2023-07-09T08:40:58;3.95;;;2.80;;
51810;SDS011;52468;40.116;18.296;2023-07-09T08:43:33;7.57;;;3.30;;
51810;SDS011;52468;40.116;18.296;2023-07-09T08:48:45;3.20;;;2.35;;
51810;SDS011;52468;40.116;18.296;2023-07-09T08:53:54;4.80;;;2.85;;
51810;SDS011;52468;40.116;18.296;2023-07-09T08:56:25;5.85;;;3.42;;
51810;SDS011;52468;40.116;18.296;2023-07-09T08:58:55;5.57;;;2.50;;
51810;SDS011;52468;40.116;18.296;2023-07-09T09:04:05;4.65;;;3.70;;
51810;SDS011;52468;40.116;18.296;2023-07-09T09:06:46;3.75;;;3.13;;
51810;SDS011;52468;40.116;18.296;2023-07-09T09:10:04;3.65;;;2.72;;
51810;SDS011;52468;40.116;18.296;2023-07-09T09:14:41;3.45;;;2.63;;
51810;SDS011;52468;40.116;18.296;2023-07-09T09:17:17;6.35;;;2.80;;
51810;SDS011;52468;40.116;18.296;2023-07-09T09:19:52;3.85;;;2.60;;
51810;SDS011;52468;40.116;18.296;2023-07-09T09:22:27;4.63;;;3.25;;
51810;SDS011;52468;40.116;18.296;2023-07-09T09:27:36;6.60;;;3.00;;
51810;SDS011;52468;40.116;18.296;2023-07-09T09:30:09;5.05;;;3.38;;
51810;SDS011;52468;40.116;18.296;2023-07-09T09:32:53;5.90;;;3.30;;
51810;SDS011;52468;40.116;18.296;2023-07-09T09:35:35;5.80;;;3.30;;
51810;SDS011;52468;40.116;18.296;2023-07-09T09:38:12;5.28;;;3.65;;
51810;SDS011;52468;40.116;18.296;2023-07-09T09:40:48;6.82;;;4.72;;
51810;SDS011;52468;40.116;18.296;2023-07-09T09:43:17;6.95;;;4.47;;
51810;SDS011;52468;40.116;18.296;2023-07-09T09:45:48;6.07;;;3.97;;
51810;SDS011;52468;40.116;18.296;2023-07-09T09:48:20;4.18;;;3.58;;
51810;SDS011;52468;40.116;18.296;2023-07-09T09:50:55;4.90;;;3.25;;
51810;SDS011;52468;40.116;18.296;2023-07-09T09:53:28;3.83;;;2.97;;
51810;SDS011;52468;40.116;18.296;2023-07-09T09:56:03;7.55;;;3.58;;
51810;SDS011;52468;40.116;18.296;2023-07-09T09:58:33;5.32;;;3.88;;
51810;SDS011;52468;40.116;18.296;2023-07-09T10:01:01;5.00;;;3.15;;
51810;SDS011;52468;40.116;18.296;2023-07-09T10:03:34;3.42;;;3.05;;
51810;SDS011;52468;40.116;18.296;2023-07-09T10:06:12;4.15;;;3.10;;
51810;SDS011;52468;40.116;18.296;2023-07-09T10:11:15;5.75;;;3.42;;
51810;SDS011;52468;40.116;18.296;2023-07-09T10:13:55;3.53;;;3.15;;
51810;SDS011;52468;40.116;18.296;2023-07-09T10:16:31;3.70;;;2.92;;
51810;SDS011;52468;40.116;18.296;2023-07-09T10:21:47;3.90;;;2.83;;
51810;SDS011;52468;40.116;18.296;2023-07-09T10:24:42;4.50;;;3.72;;
51810;SDS011;52468;40.116;18.296;2023-07-09T10:27:27;4.43;;;4.03;;
51810;SDS011;52468;40.116;18.296;2023-07-09T10:30:13;5.78;;;3.08;;
51810;SDS011;52468;40.116;18.296;2023-07-09T10:33:15;5.72;;;4.38;;
51810;SDS011;52468;40.116;18.296;2023-07-09T10:41:17;5.93;;;4.47;;
51810;SDS011;52468;40.116;18.296;2023-07-09T10:44:00;4.30;;;3.90;;
51810;SDS011;52468;40.116;18.296;2023-07-09T10:46:55;3.92;;;3.50;;
51810;SDS011;52468;40.116;18.296;2023-07-09T10:49:34;5.15;;;3.85;;
51810;SDS011;52468;40.116;18.296;2023-07-09T10:52:13;5.65;;;3.20;;
51810;SDS011;52468;40.116;18.296;2023-07-09T10:55:01;5.05;;;4.20;;
51810;SDS011;52468;40.116;18.296;2023-07-09T10:57:58;4.47;;;3.22;;
51810;SDS011;52468;40.116;18.296;2023-07-09T11:00:40;4.45;;;3.78;;
51810;SDS011;52468;40.116;18.296;2023-07-09T11:05:44;5.38;;;3.67;;
51810;SDS011;52468;40.116;18.296;2023-07-09T11:08:18;4.55;;;4.10;;
51810;SDS011;52468;40.116;18.296;2023-07-09T11:10:58;4.13;;;3.60;;
51810;SDS011;52468;40.116;18.296;2023-07-09T11:13:40;7.80;;;3.75;;
51810;SDS011;52468;40.116;18.296;2023-07-09T11:16:20;7.00;;;6.25;;
51810;SDS011;52468;40.116;18.296;2023-07-09T11:19:06;8.57;;;5.03;;
51810;SDS011;52468;40.116;18.296;2023-07-09T11:22:01;5.43;;;4.85;;
51810;SDS011;52468;40.116;18.296;2023-07-09T11:24:48;7.10;;;5.00;;
51810;SDS011;52468;40.116;18.296;2023-07-09T11:27:20;6.90;;;4.30;;
51810;SDS011;52468;40.116;18.296;2023-07-09T11:29:55;4.75;;;3.55;;
51810;SDS011;52468;40.116;18.296;2023-07-09T11:32:47;5.20;;;4.03;;
51810;SDS011;52468;40.116;18.296;2023-07-09T11:35:23;7.18;;;5.43;;
51810;SDS011;52468;40.116;18.296;2023-07-09T11:37:53;5.45;;;4.43;;
51810;SDS011;52468;40.116;18.296;2023-07-09T11:40:22;5.78;;;4.35;;
51810;SDS011;52468;40.116;18.296;2023-07-09T11:45:26;4.90;;;3.50;;
51810;SDS011;52468;40.116;18.296;2023-07-09T11:48:23;6.40;;;3.88;;
51810;SDS011;52468;40.116;18.296;2023-07-09T11:50:54;6.00;;;4.40;;
51810;SDS011;52468;40.116;18.296;2023-07-09T11:56:18;7.30;;;3.37;;
51810;SDS011;52468;40.116;18.296;2023-07-09T11:58:50;4.63;;;3.75;;
51810;SDS011;52468;40.116;18.296;2023-07-09T12:01:21;4.07;;;3.58;;
51810;SDS011;52468;40.116;18.296;2023-07-09T12:03:51;5.30;;;3.83;;
51810;SDS011;52468;40.116;18.296;2023-07-09T12:06:23;5.45;;;3.47;;
51810;SDS011;52468;40.116;18.296;2023-07-09T12:08:54;4.15;;;3.28;;
51810;SDS011;52468;40.116;18.296;2023-07-09T12:11:29;3.97;;;2.80;;
51810;SDS011;52468;40.116;18.296;2023-07-09T12:14:05;7.60;;;3.10;;
51810;SDS011;52468;40.116;18.296;2023-07-09T12:16:48;5.18;;;3.20;;
51810;SDS011;52468;40.116;18.296;2023-07-09T12:19:18;4.30;;;3.15;;
51810;SDS011;52468;40.116;18.296;2023-07-09T12:21:48;4.15;;;3.47;;
51810;SDS011;52468;40.116;18.296;2023-07-09T12:24:35;5.43;;;3.00;;
51810;SDS011;52468;40.116;18.296;2023-07-09T12:27:23;6.25;;;3.63;;
51810;SDS011;52468;40.116;18.296;2023-07-09T12:29:54;3.78;;;2.70;;
51810;SDS011;52468;40.116;18.296;2023-07-09T12:32:23;4.10;;;2.97;;
51810;SDS011;52468;40.116;18.296;2023-07-09T12:34:54;2.95;;;2.65;;
51810;SDS011;52468;40.116;18.296;2023-07-09T12:37:24;3.92;;;2.60;;
51810;SDS011;52468;40.116;18.296;2023-07-09T12:39:54;4.28;;;3.05;;
51810;SDS011;52468;40.116;18.296;2023-07-09T12:42:33;7.03;;;3.85;;
51810;SDS011;52468;40.116;18.296;2023-07-09T12:45:03;3.38;;;2.78;;
51810;SDS011;52468;40.116;18.296;2023-07-09T12:47:32;5.20;;;3.00;;
51810;SDS011;52468;40.116;18.296;2023-07-09T12:50:01;4.82;;;3.58;;
51810;SDS011;52468;40.116;18.296;2023-07-09T12:52:59;4.85;;;2.70;;
51810;SDS011;52468;40.116;18.296;2023-07-09T12:55:40;3.75;;;2.85;;
51810;SDS011;52468;40.116;18.296;2023-07-09T12:58:19;3.47;;;2.58;;
51810;SDS011;52468;40.116;18.296;2023-07-09T13:00:52;3.80;;;2.70;;
51810;SDS011;52468;40.116;18.296;2023-07-09T13:03:26;5.47;;;2.95;;
51810;SDS011;52468;40.116;18.296;2023-07-09T13:08:28;3.70;;;3.13;;
51810;SDS011;52468;40.116;18.296;2023-07-09T13:10:59;5.28;;;2.88;;
51810;SDS011;52468;40.116;18.296;2023-07-09T13:13:28;5.25;;;3.13;;
51810;SDS011;52468;40.116;18.296;2023-07-09T13:15:59;6.38;;;3.55;;
51810;SDS011;52468;40.116;18.296;2023-07-09T13:18:29;4.45;;;2.58;;
51810;SDS011;52468;40.116;18.296;2023-07-09T13:20:58;3.95;;;2.38;;
51810;SDS011;52468;40.116;18.296;2023-07-09T13:23:28;4.03;;;2.63;;
51810;SDS011;52468;40.116;18.296;2023-07-09T13:25:59;4.53;;;2.97;;
51810;SDS011;52468;40.116;18.296;2023-07-09T13:28:28;4.65;;;3.00;;
51810;SDS011;52468;40.116;18.296;2023-07-09T13:31:04;5.22;;;2.75;;
51810;SDS011;52468;40.116;18.296;2023-07-09T13:33:35;4.07;;;2.78;;
51810;SDS011;52468;40.116;18.296;2023-07-09T13:36:06;4.63;;;2.80;;
51810;SDS011;52468;40.116;18.296;2023-07-09T13:38:34;5.38;;;2.75;;
51810;SDS011;52468;40.116;18.296;2023-07-09T13:41:12;3.70;;;2.72;;
51810;SDS011;52468;40.116;18.296;2023-07-09T13:43:44;4.63;;;3.00;;
51810;SDS011;52468;40.116;18.296;2023-07-09T13:46:13;4.88;;;3.20;;
51810;SDS011;52468;40.116;18.296;2023-07-09T13:48:42;3.70;;;3.05;;
51810;SDS011;52468;40.116;18.296;2023-07-09T13:51:15;4.40;;;3.78;;
51810;SDS011;52468;40.116;18.296;2023-07-09T13:53:44;4.35;;;2.70;;
51810;SDS011;52468;40.116;18.296;2023-07-09T13:56:12;4.88;;;3.03;;
51810;SDS011;52468;40.116;18.296;2023-07-09T13:58:40;4.82;;;3.05;;
51810;SDS011;52468;40.116;18.296;2023-07-09T14:01:10;5.72;;;2.88;;
51810;SDS011;52468;40.116;18.296;2023-07-09T14:03:41;3.97;;;3.60;;
51810;SDS011;52468;40.116;18.296;2023-07-09T14:06:12;5.13;;;3.30;;
51810;SDS011;52468;40.116;18.296;2023-07-09T14:08:42;3.45;;;2.65;;
51810;SDS011;52468;40.116;18.296;2023-07-09T14:11:14;4.25;;;2.65;;
51810;SDS011;52468;40.116;18.296;2023-07-09T14:13:43;5.70;;;3.10;;
51810;SDS011;52468;40.116;18.296;2023-07-09T14:16:12;4.95;;;2.95;;
51810;SDS011;52468;40.116;18.296;2023-07-09T14:18:42;6.85;;;4.20;;
51810;SDS011;52468;40.116;18.296;2023-07-09T14:21:14;5.38;;;3.40;;
51810;SDS011;52468;40.116;18.296;2023-07-09T14:23:47;4.70;;;3.35;;
51810;SDS011;52468;40.116;18.296;2023-07-09T14:26:16;3.72;;;3.30;;
51810;SDS011;52468;40.116;18.296;2023-07-09T14:28:44;5.00;;;2.65;;
51810;SDS011;52468;40.116;18.296;2023-07-09T14:31:26;3.53;;;2.70;;
51810;SDS011;52468;40.116;18.296;2023-07-09T14:33:58;6.55;;;3.40;;
51810;SDS011;52468;40.116;18.296;2023-07-09T14:36:41;3.90;;;2.92;;
51810;SDS011;52468;40.116;18.296;2023-07-09T14:39:09;3.58;;;2.78;;
51810;SDS011;52468;40.116;18.296;2023-07-09T14:41:37;3.47;;;2.13;;
51810;SDS011;52468;40.116;18.296;2023-07-09T14:44:20;4.22;;;2.95;;
51810;SDS011;52468;40.116;18.296;2023-07-09T14:46:55;4.43;;;2.35;;
51810;SDS011;52468;40.116;18.296;2023-07-09T14:49:25;2.92;;;2.42;;
51810;SDS011;52468;40.116;18.296;2023-07-09T14:51:53;3.72;;;2.33;;
51810;SDS011;52468;40.116;18.296;2023-07-09T14:54:29;3.30;;;2.55;;
51810;SDS011;52468;40.116;18.296;2023-07-09T14:56:57;2.63;;;2.40;;
51810;SDS011;52468;40.116;18.296;2023-07-09T14:59:26;4.50;;;2.45;;
51810;SDS011;52468;40.116;18.296;2023-07-09T15:01:53;3.42;;;2.53;;
51810;SDS011;52468;40.116;18.296;2023-07-09T15:06:58;2.92;;;2.55;;
51810;SDS011;52468;40.116;18.296;2023-07-09T15:09:27;2.75;;;2.13;;
51810;SDS011;52468;40.116;18.296;2023-07-09T15:11:58;2.83;;;2.28;;
51810;SDS011;52468;40.116;18.296;2023-07-09T15:14:27;6.10;;;2.55;;
51810;SDS011;52468;40.116;18.296;2023-07-09T15:16:55;3.42;;;2.33;;
51810;SDS011;52468;40.116;18.296;2023-07-09T15:19:24;2.78;;;2.47;;
51810;SDS011;52468;40.116;18.296;2023-07-09T15:21:52;2.55;;;2.22;;
51810;SDS011;52468;40.116;18.296;2023-07-09T15:26:52;4.07;;;2.20;;
51810;SDS011;52468;40.116;18.296;2023-07-09T15:29:21;3.25;;;2.60;;
51810;SDS011;52468;40.116;18.296;2023-07-09T15:31:50;2.58;;;2.13;;
51810;SDS011;52468;40.116;18.296;2023-07-09T15:34:18;3.75;;;2.33;;
51810;SDS011;52468;40.116;18.296;2023-07-09T15:36:47;2.85;;;2.47;;
51810;SDS011;52468;40.116;18.296;2023-07-09T15:39:17;4.28;;;2.53;;
51810;SDS011;52468;40.116;18.296;2023-07-09T15:41:46;4.43;;;2.70;;
51810;SDS011;52468;40.116;18.296;2023-07-09T15:44:15;4.28;;;2.55;;
51810;SDS011;52468;40.116;18.296;2023-07-09T15:46:55;3.60;;;2.30;;